Nordic Harrier — V7VH2 — position and weather

sailwx.info

Track history (hours):
 
Tides and Currents Weather Stations Pressure Air Temp Water Temp Dewpoint Dewpoint Depression Visibility Wind Speed Wind Dir Waves Ship Positions

Nordic Harrier

Last reported at 2014-Aug-17 18:33 UTC. Time now 2014-Aug-30 00:27 UTC.
Position N 31°27' E 032°24'.
Warning: this ship's position is 12 days out of date.

Length 274 m; draft 16.3 m.

Type: Ship. MMSI: 538004121.

Date/timePositionNaut miles runAvg speedWind from/ knotsBaromVisibWave heightAir tempDewpointWater temp
2014-Aug-17 18:33N 31°27' E 032°24'4 3.8
2014-Aug-17 17:30N 31°28' E 032°20'0 0.1
2014-Aug-17 16:12N 31°28' E 032°20'0 0.0
2014-Aug-17 15:06N 31°28' E 032°20'0 0.0
2014-Aug-17 14:24N 31°28' E 032°20'0 0.0
2014-Aug-17 13:33N 31°28' E 032°20'0 0.0
2014-Aug-17 10:15N 31°28' E 032°20'0 0.0
2014-Aug-17 08:06N 31°28' E 032°20'66 3.9
2014-Aug-16 15:07N 32°25' E 032°59'811.7
2014-Aug-16 14:28N 32°31' E 033°03'2511.5
2014-Aug-16 12:20N 32°53' E 033°16'1211.5
2014-Aug-16 11:20N 33°03' E 033°23'1111.5
2014-Aug-16 10:24N 33°13' E 033°29'1011.6
2014-Aug-16 09:33N 33°22' E 033°34'2411.8
2014-Aug-16 07:32N 33°43' E 033°47'1111.5
2014-Aug-16 06:33N 33°53' E 033°54'1211.6
2014-Aug-16 05:33N 34°03' E 034°00'1211.7
2014-Aug-16 04:30N 34°14' E 034°07'2411.8
2014-Aug-16 02:29N 34°35' E 034°20'1111.8
2014-Aug-16 01:33N 34°45' E 034°27'  
2014-Aug-13 02:20N 35°39' E 032°55'1312.0
2014-Aug-13 01:14N 35°35' E 032°40'4612.1
2014-Aug-12 21:27N 35°21' E 031°47'2712.4
2014-Aug-12 19:18N 35°17' E 031°14'912.1
2014-Aug-12 18:33N 35°15' E 031°03'4812.1
2014-Aug-12 14:33N 35°08' E 030°05'16011.9
2014-Aug-12 01:04N 34°44' E 026°51'53511.8
2014-Aug-10 03:33N 35°44' E 015°60'3712.2
2014-Aug-10 00:33N 35°50' E 015°16'1312.3
2014-Aug-09 23:30N 35°52' E 014°60'1111.0
2014-Aug-09 22:31N 35°52' E 014°46'0 0.3
2014-Aug-09 21:28N 35°52' E 014°46'0 0.1
2014-Aug-09 20:28N 35°52' E 014°46'0 0.0
2014-Aug-09 19:28N 35°52' E 014°46'0 0.0
2014-Aug-09 18:28N 35°52' E 014°46'0 0.0
2014-Aug-09 17:28N 35°52' E 014°46'0 0.0
2014-Aug-09 16:16N 35°52' E 014°46'0 0.1
2014-Aug-09 15:28N 35°52' E 014°46'0 0.1
2014-Aug-09 14:22N 35°52' E 014°46'0 0.1
2014-Aug-09 13:22N 35°52' E 014°46'0 0.1
2014-Aug-09 12:28N 35°52' E 014°46'0 0.0
2014-Aug-09 11:28N 35°52' E 014°46'0 0.0
2014-Aug-09 10:22N 35°52' E 014°46'0 0.1
2014-Aug-09 09:31N 35°52' E 014°46'0 0.4
2014-Aug-09 08:33N 35°52' E 014°46'10 9.2
2014-Aug-09 07:26N 35°59' E 014°38'1112.2
2014-Aug-09 06:33N 36°06' E 014°27'1010.4
2014-Aug-09 05:33N 36°12' E 014°17'10 9.7
2014-Aug-09 04:33N 36°16' E 014°06'9 9.3
2014-Aug-09 03:33N 36°20' E 013°55'10 9.6
2014-Aug-09 02:33N 36°24' E 013°45'10 9.9
2014-Aug-09 01:33N 36°28' E 013°33'1010.0
2014-Aug-09 00:33N 36°32' E 013°22'10 9.6
2014-Aug-08 23:33N 36°36' E 013°11'11 9.8
2014-Aug-08 22:28N 36°41' E 012°59'9 9.9
2014-Aug-08 21:33N 36°44' E 012°49'10 9.8
2014-Aug-08 20:33N 36°49' E 012°38'9 9.5
2014-Aug-08 19:33N 36°52' E 012°27'1010.3
2014-Aug-08 18:33N 36°57' E 012°15'1010.2
2014-Aug-08 17:33N 37°02' E 012°04'1010.3
2014-Aug-08 16:33N 37°05' E 011°52'1010.1
2014-Aug-08 15:33N 37°10' E 011°41'1010.2
2014-Aug-08 14:33N 37°14' E 011°29'10 9.9
2014-Aug-08 13:33N 37°19' E 011°18'10 9.9
2014-Aug-08 12:33N 37°24' E 011°07'1010.2
2014-Aug-08 11:33N 37°29' E 010°56'1010.3
2014-Aug-08 10:33N 37°34' E 010°45'1010.4
2014-Aug-08 09:33N 37°39' E 010°34'1310.0
2014-Aug-08 08:13N 37°46' E 010°19'710.5
2014-Aug-08 07:33N 37°46' E 010°10'1110.5
2014-Aug-08 06:33N 37°45' E 009°57'  
Track history (hours):
 
Tides and Currents Weather Stations Pressure Air Temp Water Temp Dewpoint Dewpoint Depression Visibility Wind Speed Wind Dir Waves Ship Positions

Nordic Harrier

Last reported at 2014-Aug-17 18:33 UTC. Time now 2014-Aug-30 00:27 UTC.
Position N 31°27' E 032°24'.
Warning: this ship's position is 12 days out of date.

Length 274 m; draft 16.3 m.

Type: Ship. MMSI: 538004121.

Date/timePositionNaut miles runAvg speedWind from/ knotsBaromVisibWave heightAir tempDewpointWater temp
2014-Aug-17 18:33N 31°27' E 032°24'4 3.8
2014-Aug-17 17:30N 31°28' E 032°20'0 0.1
2014-Aug-17 16:12N 31°28' E 032°20'0 0.0
2014-Aug-17 15:06N 31°28' E 032°20'0 0.0
2014-Aug-17 14:24N 31°28' E 032°20'0 0.0
2014-Aug-17 13:33N 31°28' E 032°20'0 0.0
2014-Aug-17 10:15N 31°28' E 032°20'0 0.0
2014-Aug-17 08:06N 31°28' E 032°20'66 3.9
2014-Aug-16 15:07N 32°25' E 032°59'811.7
2014-Aug-16 14:28N 32°31' E 033°03'2511.5
2014-Aug-16 12:20N 32°53' E 033°16'1211.5
2014-Aug-16 11:20N 33°03' E 033°23'1111.5
2014-Aug-16 10:24N 33°13' E 033°29'1011.6
2014-Aug-16 09:33N 33°22' E 033°34'2411.8
2014-Aug-16 07:32N 33°43' E 033°47'1111.5
2014-Aug-16 06:33N 33°53' E 033°54'1211.6
2014-Aug-16 05:33N 34°03' E 034°00'1211.7
2014-Aug-16 04:30N 34°14' E 034°07'2411.8
2014-Aug-16 02:29N 34°35' E 034°20'1111.8
2014-Aug-16 01:33N 34°45' E 034°27'  
2014-Aug-13 02:20N 35°39' E 032°55'1312.0
2014-Aug-13 01:14N 35°35' E 032°40'4612.1
2014-Aug-12 21:27N 35°21' E 031°47'2712.4
2014-Aug-12 19:18N 35°17' E 031°14'912.1
2014-Aug-12 18:33N 35°15' E 031°03'4812.1
2014-Aug-12 14:33N 35°08' E 030°05'16011.9
2014-Aug-12 01:04N 34°44' E 026°51'53511.8
2014-Aug-10 03:33N 35°44' E 015°60'3712.2
2014-Aug-10 00:33N 35°50' E 015°16'1312.3
2014-Aug-09 23:30N 35°52' E 014°60'1111.0
2014-Aug-09 22:31N 35°52' E 014°46'0 0.3
2014-Aug-09 21:28N 35°52' E 014°46'0 0.1
2014-Aug-09 20:28N 35°52' E 014°46'0 0.0
2014-Aug-09 19:28N 35°52' E 014°46'0 0.0
2014-Aug-09 18:28N 35°52' E 014°46'0 0.0
2014-Aug-09 17:28N 35°52' E 014°46'0 0.0
2014-Aug-09 16:16N 35°52' E 014°46'0 0.1
2014-Aug-09 15:28N 35°52' E 014°46'0 0.1
2014-Aug-09 14:22N 35°52' E 014°46'0 0.1
2014-Aug-09 13:22N 35°52' E 014°46'0 0.1
2014-Aug-09 12:28N 35°52' E 014°46'0 0.0
2014-Aug-09 11:28N 35°52' E 014°46'0 0.0
2014-Aug-09 10:22N 35°52' E 014°46'0 0.1
2014-Aug-09 09:31N 35°52' E 014°46'0 0.4
2014-Aug-09 08:33N 35°52' E 014°46'10 9.2
2014-Aug-09 07:26N 35°59' E 014°38'1112.2
2014-Aug-09 06:33N 36°06' E 014°27'1010.4
2014-Aug-09 05:33N 36°12' E 014°17'10 9.7
2014-Aug-09 04:33N 36°16' E 014°06'9 9.3
2014-Aug-09 03:33N 36°20' E 013°55'10 9.6
2014-Aug-09 02:33N 36°24' E 013°45'10 9.9
2014-Aug-09 01:33N 36°28' E 013°33'1010.0
2014-Aug-09 00:33N 36°32' E 013°22'10 9.6
2014-Aug-08 23:33N 36°36' E 013°11'11 9.8
2014-Aug-08 22:28N 36°41' E 012°59'9 9.9
2014-Aug-08 21:33N 36°44' E 012°49'10 9.8
2014-Aug-08 20:33N 36°49' E 012°38'9 9.5
2014-Aug-08 19:33N 36°52' E 012°27'1010.3
2014-Aug-08 18:33N 36°57' E 012°15'1010.2
2014-Aug-08 17:33N 37°02' E 012°04'1010.3
2014-Aug-08 16:33N 37°05' E 011°52'1010.1
2014-Aug-08 15:33N 37°10' E 011°41'1010.2
2014-Aug-08 14:33N 37°14' E 011°29'10 9.9
2014-Aug-08 13:33N 37°19' E 011°18'10 9.9
2014-Aug-08 12:33N 37°24' E 011°07'1010.2
2014-Aug-08 11:33N 37°29' E 010°56'1010.3
2014-Aug-08 10:33N 37°34' E 010°45'1010.4
2014-Aug-08 09:33N 37°39' E 010°34'1310.0
2014-Aug-08 08:13N 37°46' E 010°19'710.5
2014-Aug-08 07:33N 37°46' E 010°10'1110.5
2014-Aug-08 06:33N 37°45' E 009°57'  

Dump ship's entire track history